createdAt,value
2022-08-26T00:00:01.361Z,7.90
2022-08-26T00:01:01.362Z,5.80
2022-08-26T00:02:01.761Z,5.00
2022-08-26T00:03:01.342Z,5.00
2022-08-26T00:04:01.457Z,4.70
2022-08-26T00:05:01.292Z,5.10
2022-08-26T00:06:01.298Z,5.40
2022-08-26T00:07:01.318Z,6.40
2022-08-26T00:08:01.287Z,5.00
2022-08-26T00:09:01.278Z,5.10
2022-08-26T00:10:01.508Z,4.40
2022-08-26T00:11:01.248Z,4.80
2022-08-26T00:12:01.237Z,5.10
2022-08-26T00:13:01.290Z,5.00
2022-08-26T00:14:01.206Z,4.70
2022-08-26T00:15:01.194Z,4.70
2022-08-26T00:16:01.420Z,5.90
2022-08-26T00:17:01.200Z,4.90
2022-08-26T00:18:01.159Z,4.90
2022-08-26T00:19:01.164Z,5.10
2022-08-26T00:20:01.137Z,5.20
2022-08-26T00:21:01.119Z,5.90
2022-08-26T00:22:02.143Z,5.80
2022-08-26T00:23:01.119Z,5.00
2022-08-26T00:24:01.089Z,5.80
2022-08-26T00:25:01.091Z,5.90
2022-08-26T00:26:01.072Z,5.20
2022-08-26T00:27:01.066Z,5.40
2022-08-26T00:28:01.336Z,5.20
2022-08-26T00:29:01.033Z,4.80
2022-08-26T00:30:01.036Z,5.40
2022-08-26T00:31:01.033Z,5.30
2022-08-26T00:32:01.082Z,6.10
2022-08-26T00:33:01.082Z,4.20
2022-08-26T00:34:01.226Z,4.90
2022-08-26T00:35:00.955Z,5.00
2022-08-26T00:36:00.955Z,5.00
2022-08-26T00:37:00.937Z,4.70
2022-08-26T00:38:00.948Z,4.80
2022-08-26T00:39:01.248Z,4.70
2022-08-26T00:40:01.085Z,5.50
2022-08-26T00:41:00.889Z,4.70
2022-08-26T00:42:00.895Z,6.60
2022-08-26T00:43:00.897Z,5.00
2022-08-26T00:44:00.858Z,5.50
2022-08-26T00:45:01.160Z,5.50
2022-08-26T00:46:00.897Z,5.30
2022-08-26T00:47:00.819Z,6.40
2022-08-26T00:48:00.809Z,5.60
2022-08-26T00:49:00.825Z,6.60
2022-08-26T00:50:00.790Z,5.20
2022-08-26T00:51:00.802Z,5.90
2022-08-26T00:52:00.784Z,5.60
2022-08-26T00:53:00.774Z,5.30
2022-08-26T00:54:00.757Z,5.00
2022-08-26T00:55:01.041Z,7.40
2022-08-26T00:56:00.730Z,5.10
2022-08-26T00:57:00.712Z,4.80
2022-08-26T00:58:00.703Z,6.50
2022-08-26T00:59:00.695Z,5.60
2022-08-26T01:00:00.943Z,6.40
2022-08-26T01:01:00.755Z,6.90
2022-08-26T01:02:00.721Z,8.10
2022-08-26T01:03:00.742Z,6.30
2022-08-26T01:04:00.648Z,8.50
2022-08-26T01:05:00.634Z,7.40
2022-08-26T01:06:00.627Z,6.10
2022-08-26T01:07:00.618Z,6.00
2022-08-26T01:08:00.600Z,7.10
2022-08-26T01:09:00.587Z,6.10
2022-08-26T01:10:00.565Z,7.20
2022-08-26T01:11:00.549Z,7.80
2022-08-26T01:12:00.568Z,6.60
2022-08-26T01:13:00.633Z,6.90
2022-08-26T01:14:00.522Z,9.10
2022-08-26T01:15:00.501Z,6.00
2022-08-26T01:16:00.552Z,8.40
2022-08-26T01:17:00.480Z,9.40
2022-08-26T01:18:00.786Z,5.70
2022-08-26T01:19:00.483Z,6.40
2022-08-26T01:20:00.465Z,7.30
2022-08-26T01:21:00.446Z,6.90
2022-08-26T01:22:00.464Z,6.50
2022-08-26T01:23:03.119Z,6.30
2022-08-26T01:24:00.736Z,6.30
2022-08-26T01:25:00.397Z,7.40
2022-08-26T01:26:00.384Z,6.80
2022-08-26T01:27:00.392Z,6.40
2022-08-26T01:28:00.376Z,7.70
2022-08-26T01:29:00.354Z,6.60
2022-08-26T01:30:00.635Z,9.20
2022-08-26T01:31:00.339Z,6.60
2022-08-26T01:32:00.426Z,7.50
2022-08-26T01:33:00.312Z,9.40
2022-08-26T01:34:00.309Z,6.70
2022-08-26T01:35:00.302Z,6.70
2022-08-26T01:36:00.281Z,8.00
2022-08-26T01:37:00.291Z,8.90
2022-08-26T01:38:00.248Z,7.00
2022-08-26T01:39:00.240Z,8.80
2022-08-26T01:40:00.301Z,10.00
2022-08-26T01:41:00.239Z,10.20
2022-08-26T01:42:03.222Z,8.00
2022-08-26T01:43:00.190Z,7.00
2022-08-26T01:44:00.191Z,10.20
2022-08-26T01:45:00.187Z,8.60
2022-08-26T01:46:00.193Z,8.00
2022-08-26T01:47:00.161Z,8.70
2022-08-26T01:48:00.420Z,8.30
2022-08-26T01:49:00.134Z,9.60
2022-08-26T01:50:00.155Z,7.00
2022-08-26T01:51:00.113Z,9.80
2022-08-26T01:52:00.083Z,10.70
2022-08-26T01:53:00.284Z,7.50
2022-08-26T01:54:00.089Z,8.60
2022-08-26T01:55:00.084Z,10.00
2022-08-26T01:56:00.048Z,8.00
2022-08-26T01:57:00.043Z,9.80
2022-08-26T01:58:00.248Z,8.40
2022-08-26T01:59:00.029Z,8.30
2022-08-26T02:00:00.012Z,8.60
2022-08-26T02:01:00.030Z,10.20
2022-08-26T02:01:59.991Z,9.30
2022-08-26T02:02:59.959Z,9.40
2022-08-26T02:03:59.977Z,10.00
2022-08-26T02:05:00.005Z,8.90
2022-08-26T02:05:59.931Z,11.80
2022-08-26T02:06:59.919Z,12.60
2022-08-26T02:07:59.921Z,10.50
2022-08-26T02:08:59.914Z,8.60
2022-08-26T02:10:00.198Z,13.40
2022-08-26T02:10:59.884Z,12.30
2022-08-26T02:11:59.874Z,12.20
2022-08-26T02:12:59.866Z,15.20
2022-08-26T02:13:59.855Z,13.30
2022-08-26T02:15:00.046Z,20.70
2022-08-26T02:15:59.905Z,18.80
2022-08-26T02:16:59.803Z,23.30
2022-08-26T02:17:59.793Z,32.90
2022-08-26T02:18:59.828Z,34.40
2022-08-26T02:19:59.788Z,34.30
2022-08-26T02:20:59.955Z,38.40
2022-08-26T02:21:59.754Z,34.20
2022-08-26T02:22:59.748Z,34.70
2022-08-26T02:23:59.727Z,12.00
2022-08-26T02:24:59.935Z,12.70
2022-08-26T02:25:59.706Z,13.20
2022-08-26T02:26:59.696Z,8.30
2022-08-26T02:27:59.701Z,9.00
2022-08-26T02:28:59.991Z,8.90
2022-08-26T02:29:59.667Z,9.80
2022-08-26T02:30:59.659Z,8.20
2022-08-26T02:31:59.642Z,12.00
2022-08-26T02:32:59.640Z,7.90
2022-08-26T02:33:59.619Z,9.90
2022-08-26T02:34:59.897Z,10.10
2022-08-26T02:35:59.590Z,7.00
2022-08-26T02:36:59.593Z,10.00
2022-08-26T02:37:59.571Z,8.90
2022-08-26T02:38:59.571Z,8.80
2022-08-26T02:39:59.647Z,6.70
2022-08-26T02:40:59.563Z,7.10
2022-08-26T02:41:59.537Z,6.20
2022-08-26T02:42:59.517Z,5.70
2022-08-26T02:43:59.519Z,5.40
2022-08-26T02:44:59.686Z,7.00
2022-08-26T02:46:01.839Z,5.60
2022-08-26T02:46:59.520Z,5.70
2022-08-26T02:47:59.610Z,6.10
2022-08-26T02:48:59.491Z,6.40
2022-08-26T02:49:59.426Z,6.70
2022-08-26T02:50:59.655Z,6.60
2022-08-26T02:51:59.427Z,6.10
2022-08-26T02:52:59.411Z,7.00
2022-08-26T02:53:59.385Z,6.50
2022-08-26T02:54:59.381Z,6.80
2022-08-26T02:55:59.819Z,6.20
2022-08-26T02:56:59.383Z,5.40
2022-08-26T02:57:59.342Z,7.80
2022-08-26T02:58:59.864Z,6.00
2022-08-26T02:59:59.310Z,8.30
2022-08-26T03:00:59.362Z,6.20
2022-08-26T03:01:59.661Z,6.80
2022-08-26T03:02:59.279Z,6.20
2022-08-26T03:03:59.270Z,7.80
2022-08-26T03:05:01.927Z,8.00
2022-08-26T03:05:59.256Z,7.20
2022-08-26T03:06:59.246Z,6.90
2022-08-26T03:07:59.221Z,8.10
2022-08-26T03:08:59.212Z,6.70
2022-08-26T03:09:59.206Z,7.60
2022-08-26T03:10:59.493Z,7.60
2022-08-26T03:11:59.174Z,8.60
2022-08-26T03:12:59.163Z,8.00
2022-08-26T03:14:00.158Z,7.60
2022-08-26T03:14:59.355Z,7.80
2022-08-26T03:15:59.208Z,7.80
2022-08-26T03:16:59.115Z,9.10
2022-08-26T03:17:59.116Z,9.20
2022-08-26T03:18:59.105Z,8.50
2022-08-26T03:19:59.080Z,7.70
2022-08-26T03:20:59.368Z,9.20
2022-08-26T03:21:59.070Z,9.20
2022-08-26T03:22:59.047Z,9.90
2022-08-26T03:23:59.028Z,9.80
2022-08-26T03:24:59.353Z,9.00
2022-08-26T03:25:59.033Z,8.40
2022-08-26T03:26:59.000Z,8.50
2022-08-26T03:27:59.502Z,9.20
2022-08-26T03:28:58.988Z,10.70
2022-08-26T03:29:58.961Z,10.80
2022-08-26T03:30:58.994Z,9.60
2022-08-26T03:31:58.940Z,9.00
2022-08-26T03:32:58.945Z,9.40
2022-08-26T03:33:59.653Z,10.00
2022-08-26T03:34:58.923Z,12.10
2022-08-26T03:35:58.907Z,10.10
2022-08-26T03:36:59.119Z,10.40
2022-08-26T03:37:58.876Z,9.50
2022-08-26T03:38:58.864Z,10.80
2022-08-26T03:39:58.883Z,10.70
2022-08-26T03:40:58.834Z,11.50
2022-08-26T03:41:58.844Z,10.10
2022-08-26T03:42:58.828Z,10.90
2022-08-26T03:44:01.735Z,11.20
2022-08-26T03:44:58.809Z,11.30
2022-08-26T03:45:58.794Z,14.30
2022-08-26T03:46:58.799Z,12.50
2022-08-26T03:47:58.746Z,12.40
2022-08-26T03:48:58.776Z,12.70
2022-08-26T03:49:59.047Z,12.50
2022-08-26T03:50:58.717Z,13.40
2022-08-26T03:51:58.708Z,13.10
2022-08-26T03:52:58.712Z,14.30
2022-08-26T03:53:58.680Z,13.20
2022-08-26T03:54:58.669Z,13.70
2022-08-26T03:55:58.909Z,13.80
2022-08-26T03:56:58.651Z,14.50
2022-08-26T03:57:58.648Z,15.20
2022-08-26T03:58:58.642Z,14.50
2022-08-26T03:59:58.612Z,14.30
2022-08-26T04:00:58.614Z,15.10
2022-08-26T04:01:58.681Z,14.80
2022-08-26T04:02:58.707Z,15.70
2022-08-26T04:04:00.152Z,15.70
2022-08-26T04:04:58.568Z,15.90
2022-08-26T04:05:58.803Z,18.90
2022-08-26T04:06:58.535Z,17.00
2022-08-26T04:07:58.535Z,16.60
2022-08-26T04:08:58.513Z,15.70
2022-08-26T04:09:58.506Z,16.80
2022-08-26T04:10:58.790Z,16.80
2022-08-26T04:11:58.490Z,17.50
2022-08-26T04:13:00.707Z,17.40
2022-08-26T04:13:58.446Z,18.10
2022-08-26T04:14:58.450Z,18.30
2022-08-26T04:15:58.734Z,20.30
2022-08-26T04:16:58.431Z,19.40
2022-08-26T04:17:58.398Z,20.10
2022-08-26T04:18:58.411Z,19.60
2022-08-26T04:19:58.401Z,22.60
2022-08-26T04:20:58.382Z,20.50
2022-08-26T04:21:58.620Z,22.80
2022-08-26T04:22:58.353Z,23.00
2022-08-26T04:23:58.435Z,23.30
2022-08-26T04:24:58.328Z,22.70
2022-08-26T04:25:58.579Z,25.30
2022-08-26T04:26:58.500Z,22.90
2022-08-26T04:27:58.281Z,24.20
2022-08-26T04:28:58.273Z,25.20
2022-08-26T04:29:58.269Z,24.80
2022-08-26T04:30:58.300Z,23.70
2022-08-26T04:31:58.233Z,25.50
2022-08-26T04:32:58.265Z,25.50
2022-08-26T04:33:58.213Z,25.80
2022-08-26T04:34:58.226Z,28.80
2022-08-26T04:35:58.209Z,27.50
2022-08-26T04:36:58.254Z,29.10
2022-08-26T04:37:58.181Z,26.20
2022-08-26T04:38:58.200Z,27.60
2022-08-26T04:39:58.189Z,26.70
2022-08-26T04:40:58.148Z,26.60
2022-08-26T04:41:58.115Z,27.50
2022-08-26T04:42:58.215Z,27.40
2022-08-26T04:44:02.301Z,27.20
2022-08-26T04:44:58.100Z,28.60
2022-08-26T04:45:58.147Z,30.80
2022-08-26T04:46:58.079Z,29.60
2022-08-26T04:47:58.062Z,28.70
2022-08-26T04:48:58.039Z,29.40
2022-08-26T04:49:58.309Z,30.60
2022-08-26T04:50:58.029Z,27.90
2022-08-26T04:51:58.009Z,30.10
2022-08-26T04:52:57.990Z,29.70
2022-08-26T04:53:57.978Z,30.80
2022-08-26T04:54:57.988Z,30.90
2022-08-26T04:55:58.214Z,32.20
2022-08-26T04:56:57.964Z,27.20
2022-08-26T04:57:57.946Z,31.60
2022-08-26T04:58:57.942Z,29.50
2022-08-26T04:59:57.924Z,29.70
2022-08-26T05:00:58.245Z,31.10
2022-08-26T05:01:57.940Z,34.20
2022-08-26T05:02:57.910Z,35.10
2022-08-26T05:03:57.878Z,33.00
2022-08-26T05:04:57.886Z,35.00
2022-08-26T05:05:57.834Z,35.10
2022-08-26T05:07:02.781Z,39.70
2022-08-26T05:07:59.077Z,33.60
2022-08-26T05:08:57.805Z,35.50
2022-08-26T05:09:57.806Z,37.70
2022-08-26T05:10:57.787Z,42.50
2022-08-26T05:11:57.777Z,37.40
2022-08-26T05:12:57.758Z,39.10
2022-08-26T05:14:01.627Z,37.00
2022-08-26T05:14:57.748Z,39.10
2022-08-26T05:16:00.581Z,39.10
2022-08-26T05:16:57.730Z,37.60
2022-08-26T05:17:57.718Z,41.10
2022-08-26T05:18:57.697Z,41.60
2022-08-26T05:19:57.870Z,40.10
2022-08-26T05:20:57.685Z,40.70
2022-08-26T05:21:57.805Z,43.20
2022-08-26T05:22:57.650Z,42.30
2022-08-26T05:23:57.641Z,41.30
2022-08-26T05:24:57.621Z,43.70
2022-08-26T05:25:59.397Z,47.20
2022-08-26T05:26:57.643Z,48.20
2022-08-26T05:27:57.599Z,44.20
2022-08-26T05:28:57.596Z,44.80
2022-08-26T05:29:57.589Z,45.70
2022-08-26T05:30:57.624Z,47.30
2022-08-26T05:31:57.535Z,47.50
2022-08-26T05:32:57.578Z,47.30
2022-08-26T05:33:57.609Z,46.80
2022-08-26T05:34:57.537Z,51.50
2022-08-26T05:35:57.526Z,48.20
2022-08-26T05:36:57.505Z,51.00
2022-08-26T05:37:57.509Z,52.40
2022-08-26T05:38:57.506Z,49.00
2022-08-26T05:39:57.496Z,54.40
2022-08-26T05:40:57.439Z,48.00
2022-08-26T05:41:57.427Z,55.40
2022-08-26T05:42:57.418Z,50.50
2022-08-26T05:43:57.402Z,52.40
2022-08-26T05:44:57.422Z,51.30
2022-08-26T05:45:57.421Z,50.40
2022-08-26T05:46:57.403Z,51.20
2022-08-26T05:47:57.374Z,52.80
2022-08-26T05:48:57.660Z,51.00
2022-08-26T05:49:57.330Z,52.70
2022-08-26T05:50:57.337Z,57.00
2022-08-26T05:51:57.311Z,53.80
2022-08-26T05:52:57.316Z,53.70
2022-08-26T05:53:57.331Z,53.00
2022-08-26T05:54:57.296Z,52.00
2022-08-26T05:55:58.135Z,56.60
2022-08-26T05:56:57.254Z,55.90
2022-08-26T05:57:57.255Z,51.90
2022-08-26T05:58:57.247Z,56.50
2022-08-26T05:59:57.344Z,55.90
2022-08-26T06:00:57.226Z,58.00
2022-08-26T06:01:57.313Z,55.40
2022-08-26T06:02:57.222Z,54.30
2022-08-26T06:03:57.188Z,54.40
2022-08-26T06:04:57.493Z,56.90
2022-08-26T06:05:57.161Z,56.80
2022-08-26T06:06:57.144Z,54.90
2022-08-26T06:07:57.142Z,52.90
2022-08-26T06:08:57.139Z,53.10
2022-08-26T06:10:21.358Z,54.50
2022-08-26T06:10:58.191Z,53.90
2022-08-26T06:11:57.078Z,54.30
2022-08-26T06:12:57.091Z,57.40
2022-08-26T06:14:01.204Z,53.20
2022-08-26T06:14:58.063Z,54.30
2022-08-26T06:15:57.088Z,51.60
2022-08-26T06:16:57.054Z,54.00
2022-08-26T06:17:57.033Z,54.50
2022-08-26T06:18:57.017Z,50.50
2022-08-26T06:19:57.006Z,53.40
2022-08-26T06:20:58.278Z,54.60
2022-08-26T06:21:57.292Z,52.60
2022-08-26T06:22:56.965Z,52.60
2022-08-26T06:23:56.958Z,50.00
2022-08-26T06:24:56.924Z,52.30
2022-08-26T06:25:56.927Z,48.80
2022-08-26T06:26:56.936Z,49.10
2022-08-26T06:27:56.886Z,51.30
2022-08-26T06:28:56.900Z,51.50
2022-08-26T06:29:56.866Z,50.60
2022-08-26T06:30:57.023Z,47.90
2022-08-26T06:31:56.865Z,47.40
2022-08-26T06:32:57.159Z,44.10
2022-08-26T06:33:56.838Z,47.20
2022-08-26T06:34:56.829Z,44.60
2022-08-26T06:35:56.808Z,44.70
2022-08-26T06:36:56.787Z,42.90
2022-08-26T06:37:56.781Z,46.20
2022-08-26T06:38:56.801Z,43.90
2022-08-26T06:39:56.795Z,41.00
2022-08-26T06:40:57.856Z,42.90
2022-08-26T06:41:56.728Z,45.00
2022-08-26T06:42:56.732Z,43.70
2022-08-26T06:43:56.702Z,44.10
2022-08-26T06:44:57.001Z,45.40
2022-08-26T06:45:56.732Z,44.40
2022-08-26T06:46:56.679Z,43.40
2022-08-26T06:47:56.675Z,40.50
2022-08-26T06:48:56.665Z,42.70
2022-08-26T06:49:56.654Z,41.70
2022-08-26T06:50:56.623Z,42.70
2022-08-26T06:51:56.614Z,41.40
2022-08-26T06:52:56.603Z,41.80
2022-08-26T06:53:56.600Z,43.40
2022-08-26T06:54:56.574Z,42.30
2022-08-26T06:55:56.827Z,43.80
2022-08-26T06:56:56.588Z,42.90
2022-08-26T06:57:56.555Z,43.50
2022-08-26T06:58:56.541Z,43.40
2022-08-26T06:59:56.515Z,40.30
2022-08-26T07:00:59.529Z,42.60
2022-08-26T07:01:57.687Z,42.00
2022-08-26T07:02:56.554Z,43.00
2022-08-26T07:03:57.105Z,43.20
2022-08-26T07:04:56.918Z,42.50
2022-08-26T07:05:56.460Z,42.40
2022-08-26T07:06:56.846Z,41.30
2022-08-26T07:07:56.441Z,39.90
2022-08-26T07:08:56.418Z,39.60
2022-08-26T07:09:56.431Z,39.90
2022-08-26T07:10:56.390Z,40.30
2022-08-26T07:11:56.433Z,39.30
2022-08-26T07:12:56.371Z,39.90
2022-08-26T07:13:56.351Z,37.80
2022-08-26T07:14:56.613Z,40.80
2022-08-26T07:15:57.383Z,38.10
2022-08-26T07:16:56.322Z,38.90
2022-08-26T07:17:56.312Z,39.20
2022-08-26T07:18:56.316Z,40.10
2022-08-26T07:19:56.623Z,40.50
2022-08-26T07:20:56.273Z,41.40
2022-08-26T07:21:56.265Z,40.50
2022-08-26T07:22:56.258Z,40.30
2022-08-26T07:24:01.209Z,39.70
2022-08-26T07:24:57.252Z,39.50
2022-08-26T07:25:56.215Z,40.80
2022-08-26T07:26:56.217Z,38.70
2022-08-26T07:27:56.200Z,39.40
2022-08-26T07:28:56.185Z,41.30
2022-08-26T07:29:56.190Z,42.50
2022-08-26T07:30:56.246Z,41.70
2022-08-26T07:31:56.324Z,38.70
2022-08-26T07:32:56.148Z,39.70
2022-08-26T07:33:56.138Z,43.70
2022-08-26T07:34:56.122Z,40.30
2022-08-26T07:35:56.099Z,38.40
2022-08-26T07:36:56.079Z,40.90
2022-08-26T07:37:57.150Z,38.10
2022-08-26T07:38:56.060Z,38.20
2022-08-26T07:39:56.101Z,37.70
2022-08-26T07:40:56.053Z,39.10
2022-08-26T07:41:56.044Z,38.30
2022-08-26T07:42:56.040Z,38.00
2022-08-26T07:43:56.023Z,37.40
2022-08-26T07:44:56.005Z,35.90
2022-08-26T07:45:56.242Z,36.20
2022-08-26T07:46:55.988Z,36.30
2022-08-26T07:47:55.985Z,36.70
2022-08-26T07:48:55.958Z,36.80
2022-08-26T07:49:55.934Z,35.50
2022-08-26T07:50:56.137Z,38.30
2022-08-26T07:51:55.938Z,40.40
2022-08-26T07:52:55.920Z,38.10
2022-08-26T07:53:55.919Z,38.90
2022-08-26T07:54:55.911Z,39.60
2022-08-26T07:55:56.176Z,38.20
2022-08-26T07:56:56.090Z,36.20
2022-08-26T07:57:55.847Z,42.80
2022-08-26T07:58:55.862Z,38.00
2022-08-26T07:59:55.840Z,37.80
2022-08-26T08:00:55.808Z,39.20
2022-08-26T08:01:55.844Z,37.60
2022-08-26T08:02:55.802Z,34.70
2022-08-26T08:03:55.792Z,33.80
2022-08-26T08:04:56.128Z,37.70
2022-08-26T08:05:55.771Z,39.30
2022-08-26T08:06:55.754Z,35.90
2022-08-26T08:08:17.350Z,37.50
2022-08-26T08:08:56.741Z,34.60
2022-08-26T08:09:55.712Z,34.00
2022-08-26T08:10:55.735Z,34.10
2022-08-26T08:11:55.687Z,35.30
2022-08-26T08:12:55.676Z,37.90
2022-08-26T08:13:56.403Z,36.30
2022-08-26T08:14:55.665Z,33.80
2022-08-26T08:15:55.634Z,37.70
2022-08-26T08:16:55.752Z,36.90
2022-08-26T08:17:58.872Z,36.50
2022-08-26T08:18:55.637Z,33.10
2022-08-26T08:19:55.585Z,35.40
2022-08-26T08:21:10.815Z,37.20
2022-08-26T08:21:56.587Z,35.00
2022-08-26T08:22:55.556Z,33.80
2022-08-26T08:23:55.567Z,35.60
2022-08-26T08:24:55.549Z,35.90
2022-08-26T08:25:55.541Z,38.90
2022-08-26T08:26:56.140Z,34.90
2022-08-26T08:27:55.509Z,36.40
2022-08-26T08:28:55.488Z,34.30
2022-08-26T08:29:55.502Z,34.60
2022-08-26T08:30:55.527Z,33.10
2022-08-26T08:31:57.867Z,33.30
2022-08-26T08:32:55.680Z,33.00
2022-08-26T08:33:55.444Z,32.10
2022-08-26T08:34:55.433Z,30.40
2022-08-26T08:35:55.424Z,32.20
2022-08-26T08:36:55.617Z,29.20
2022-08-26T08:37:55.405Z,30.40
2022-08-26T08:38:55.386Z,31.20
2022-08-26T08:39:55.723Z,30.80
2022-08-26T08:40:55.353Z,30.80
2022-08-26T08:41:55.344Z,30.40
2022-08-26T08:42:55.337Z,31.40
2022-08-26T08:43:55.345Z,34.50
2022-08-26T08:44:55.318Z,31.40
2022-08-26T08:45:55.544Z,30.30
2022-08-26T08:46:55.285Z,31.50
2022-08-26T08:47:55.276Z,32.30
2022-08-26T08:48:55.257Z,30.20
2022-08-26T08:49:55.257Z,32.10
2022-08-26T08:50:55.236Z,33.10
2022-08-26T08:51:55.681Z,31.00
2022-08-26T08:52:55.232Z,29.60
2022-08-26T08:53:55.232Z,30.20
2022-08-26T08:54:55.533Z,27.90
2022-08-26T08:55:55.201Z,29.80
2022-08-26T08:56:55.182Z,27.10
2022-08-26T08:57:55.159Z,31.00
2022-08-26T08:58:56.910Z,28.30
2022-08-26T08:59:55.172Z,29.10
2022-08-26T09:00:55.183Z,27.00
2022-08-26T09:01:55.134Z,26.90
2022-08-26T09:02:55.134Z,30.20
2022-08-26T09:03:55.110Z,28.40
2022-08-26T09:04:55.094Z,28.40
2022-08-26T09:05:55.324Z,27.80
2022-08-26T09:06:55.092Z,29.30
2022-08-26T09:07:55.375Z,27.80
2022-08-26T09:08:55.036Z,28.10
2022-08-26T09:09:55.039Z,29.50
2022-08-26T09:10:55.014Z,31.60
2022-08-26T09:11:55.016Z,26.90
2022-08-26T09:12:55.235Z,26.20
2022-08-26T09:13:54.997Z,24.50
2022-08-26T09:15:16.638Z,24.40
2022-08-26T09:15:54.949Z,28.10
2022-08-26T09:16:55.020Z,25.90
2022-08-26T09:17:55.256Z,27.00
2022-08-26T09:18:54.942Z,25.50
2022-08-26T09:19:54.930Z,25.70
2022-08-26T09:20:54.911Z,28.90
2022-08-26T09:21:54.887Z,29.30
2022-08-26T09:22:54.892Z,26.00
2022-08-26T09:23:55.080Z,24.10
2022-08-26T09:24:54.919Z,26.40
2022-08-26T09:26:54.831Z,26.20
2022-08-26T09:27:54.818Z,23.20
2022-08-26T09:28:54.813Z,26.40
2022-08-26T09:29:54.812Z,23.60
2022-08-26T09:30:55.148Z,24.70
2022-08-26T09:31:54.772Z,23.00
2022-08-26T09:32:56.046Z,25.20
2022-08-26T09:33:54.750Z,24.40
2022-08-26T09:34:54.743Z,26.00
2022-08-26T09:35:54.732Z,26.10
2022-08-26T09:36:54.923Z,25.10
2022-08-26T09:37:54.728Z,23.50
2022-08-26T09:39:22.374Z,24.70
2022-08-26T09:39:54.748Z,24.90
2022-08-26T09:40:59.342Z,30.60
2022-08-26T09:41:55.680Z,26.10
2022-08-26T09:42:54.906Z,23.80
2022-08-26T09:43:54.637Z,27.90
2022-08-26T09:44:54.663Z,25.40
2022-08-26T09:45:58.420Z,27.10
2022-08-26T09:46:55.607Z,24.70
2022-08-26T09:47:54.929Z,25.50
2022-08-26T09:48:54.722Z,25.70
2022-08-26T09:49:54.580Z,25.00
2022-08-26T09:50:54.573Z,24.90
2022-08-26T09:51:54.563Z,28.20
2022-08-26T09:52:54.540Z,25.60
2022-08-26T09:53:54.561Z,27.40
2022-08-26T09:54:54.524Z,25.30
2022-08-26T09:55:54.522Z,27.50
2022-08-26T09:56:54.821Z,27.20
2022-08-26T09:57:54.481Z,27.30
2022-08-26T09:58:54.777Z,25.30
2022-08-26T09:59:54.460Z,27.00
2022-08-26T10:00:54.531Z,27.50
2022-08-26T10:01:54.516Z,25.70
2022-08-26T10:02:57.930Z,26.30
2022-08-26T10:03:54.471Z,28.90
2022-08-26T10:04:54.404Z,26.40
2022-08-26T10:05:54.719Z,26.90
2022-08-26T10:06:54.389Z,27.90
2022-08-26T10:07:54.379Z,26.30
2022-08-26T10:08:54.690Z,28.10
2022-08-26T10:09:54.348Z,29.60
2022-08-26T10:10:54.660Z,27.20
2022-08-26T10:12:01.307Z,26.90
2022-08-26T10:12:54.322Z,29.80
2022-08-26T10:13:54.299Z,30.30
2022-08-26T10:14:54.303Z,29.50
2022-08-26T10:15:54.581Z,28.30
2022-08-26T10:16:54.378Z,30.30
2022-08-26T10:17:54.251Z,29.90
2022-08-26T10:18:58.111Z,29.10
2022-08-26T10:19:56.802Z,28.40
2022-08-26T10:20:54.235Z,32.30
2022-08-26T10:21:54.443Z,28.30
2022-08-26T10:22:54.200Z,26.40
2022-08-26T10:23:54.205Z,27.70
2022-08-26T10:24:55.280Z,28.80
2022-08-26T10:25:54.386Z,27.70
2022-08-26T10:26:54.151Z,27.70
2022-08-26T10:27:54.175Z,24.90
2022-08-26T10:28:54.146Z,22.70
2022-08-26T10:29:54.115Z,24.60
2022-08-26T10:30:54.118Z,26.30
2022-08-26T10:31:54.159Z,22.30
2022-08-26T10:32:54.098Z,24.60
2022-08-26T10:33:56.709Z,21.90
2022-08-26T10:34:54.069Z,23.90
2022-08-26T10:35:54.047Z,23.60
2022-08-26T10:37:14.592Z,23.40
2022-08-26T10:37:55.057Z,22.20
2022-08-26T10:38:54.031Z,23.40
2022-08-26T10:39:58.447Z,20.30
2022-08-26T10:40:54.988Z,20.60
2022-08-26T10:41:53.992Z,22.70
2022-08-26T10:42:53.993Z,21.80
2022-08-26T10:43:53.959Z,22.70
2022-08-26T10:44:53.973Z,24.20
2022-08-26T10:45:54.316Z,23.30
2022-08-26T10:46:53.935Z,25.00
2022-08-26T10:47:53.911Z,24.30
2022-08-26T10:48:53.895Z,24.50
2022-08-26T10:49:56.511Z,23.10
2022-08-26T10:50:55.207Z,21.70
2022-08-26T10:51:53.890Z,26.50
2022-08-26T10:52:53.869Z,25.70
2022-08-26T10:53:53.845Z,23.70
2022-08-26T10:54:53.848Z,21.50
2022-08-26T10:55:53.814Z,21.20
2022-08-26T10:56:54.125Z,24.40
2022-08-26T10:57:53.808Z,21.50
2022-08-26T10:58:53.801Z,21.40
2022-08-26T10:59:53.778Z,21.10
2022-08-26T11:00:53.815Z,20.40
2022-08-26T11:01:53.869Z,20.20
2022-08-26T11:02:53.750Z,20.10
2022-08-26T11:05:04.741Z,17.00
2022-08-26T11:06:04.708Z,17.40
2022-08-26T11:07:04.709Z,17.80
2022-08-26T11:08:04.700Z,17.60
2022-08-26T11:09:04.669Z,18.60
2022-08-26T11:10:04.693Z,18.70
2022-08-26T11:11:04.663Z,16.80
2022-08-26T11:12:09.961Z,20.10
2022-08-26T11:13:05.999Z,17.20
2022-08-26T11:14:04.636Z,17.60
2022-08-26T11:15:05.080Z,19.20
2022-08-26T11:16:04.651Z,18.20
2022-08-26T11:17:04.611Z,18.70
2022-08-26T11:18:04.577Z,17.30
2022-08-26T11:19:04.566Z,19.10
2022-08-26T11:20:08.922Z,18.40
2022-08-26T11:21:05.525Z,17.40
2022-08-26T11:22:04.734Z,17.50
2022-08-26T11:23:04.527Z,19.10
2022-08-26T11:24:04.495Z,19.50
2022-08-26T11:25:04.486Z,17.40
2022-08-26T11:26:04.490Z,16.50
2022-08-26T11:27:04.472Z,17.00
2022-08-26T11:28:04.670Z,17.00
2022-08-26T11:29:04.443Z,15.50
2022-08-26T11:30:05.434Z,17.40
2022-08-26T11:31:04.627Z,17.70
2022-08-26T11:32:04.428Z,17.80
2022-08-26T11:33:04.802Z,16.70
2022-08-26T11:34:04.410Z,16.00
2022-08-26T11:35:04.380Z,18.20
2022-08-26T11:36:12.102Z,17.90
2022-08-26T11:37:05.384Z,15.00
2022-08-26T11:38:04.469Z,16.10
2022-08-26T11:39:04.331Z,15.30
2022-08-26T11:40:04.403Z,16.20
2022-08-26T11:41:04.292Z,15.50
2022-08-26T11:42:04.296Z,15.60
2022-08-26T11:43:04.491Z,15.00
2022-08-26T11:44:04.276Z,17.60
2022-08-26T11:45:05.685Z,16.70
2022-08-26T11:46:04.296Z,14.60
2022-08-26T11:47:04.227Z,16.10
2022-08-26T11:48:04.217Z,13.90
2022-08-26T11:49:04.204Z,13.70
2022-08-26T11:50:04.186Z,13.00
2022-08-26T11:51:04.500Z,13.90
2022-08-26T11:52:04.186Z,14.20
2022-08-26T11:53:04.149Z,15.40
2022-08-26T11:54:04.145Z,13.10
2022-08-26T11:55:04.141Z,13.40
2022-08-26T11:56:04.339Z,14.30
2022-08-26T11:57:09.532Z,16.50
2022-08-26T11:58:06.822Z,15.20
2022-08-26T11:59:04.114Z,13.30
2022-08-26T12:00:04.091Z,15.20
2022-08-26T12:01:04.062Z,12.60
2022-08-26T12:02:04.292Z,12.30
2022-08-26T12:03:04.106Z,13.10
2022-08-26T12:04:04.123Z,12.60
2022-08-26T12:05:04.025Z,13.20
2022-08-26T12:06:04.018Z,11.20
2022-08-26T12:07:04.004Z,10.90
2022-08-26T12:08:04.315Z,10.10
2022-08-26T12:09:03.985Z,12.80
2022-08-26T12:10:03.965Z,11.90
2022-08-26T12:11:03.944Z,10.80
2022-08-26T12:12:03.948Z,9.70
2022-08-26T12:13:03.923Z,11.90
2022-08-26T12:14:03.948Z,12.50
2022-08-26T12:15:03.895Z,10.50
2022-08-26T12:16:04.141Z,12.00
2022-08-26T12:17:03.891Z,11.60
2022-08-26T12:18:04.996Z,12.60
2022-08-26T12:19:03.847Z,11.50
2022-08-26T12:20:03.848Z,11.30
2022-08-26T12:21:03.840Z,14.10
2022-08-26T12:22:04.059Z,12.40
2022-08-26T12:23:03.823Z,11.60
2022-08-26T12:24:03.812Z,12.90
2022-08-26T12:25:03.801Z,11.60
2022-08-26T12:26:03.792Z,12.10
2022-08-26T12:27:03.761Z,13.20
2022-08-26T12:28:04.111Z,12.90
2022-08-26T12:29:08.478Z,13.90
2022-08-26T12:30:04.735Z,12.50
2022-08-26T12:31:03.740Z,13.00
2022-08-26T12:32:03.937Z,12.90
2022-08-26T12:33:15.761Z,12.60
2022-08-26T12:34:04.692Z,12.00
2022-08-26T12:36:03.658Z,13.30
2022-08-26T12:37:03.647Z,11.30
2022-08-26T12:38:03.736Z,12.00
2022-08-26T12:39:03.826Z,12.60
2022-08-26T12:40:03.691Z,12.90
2022-08-26T12:41:03.606Z,11.90
2022-08-26T12:42:03.602Z,11.30
2022-08-26T12:43:03.577Z,10.60
2022-08-26T12:44:03.789Z,9.00
2022-08-26T12:45:03.547Z,9.20
2022-08-26T12:46:03.626Z,11.40
2022-08-26T12:47:03.541Z,8.70
2022-08-26T12:48:03.519Z,8.00
2022-08-26T12:49:03.516Z,8.20
2022-08-26T12:50:03.516Z,9.10
2022-08-26T12:51:03.481Z,8.90
2022-08-26T12:52:03.483Z,9.70
2022-08-26T12:53:03.470Z,9.80
2022-08-26T12:54:03.461Z,9.90
2022-08-26T12:55:03.454Z,8.50
2022-08-26T12:56:03.442Z,9.40
2022-08-26T12:57:03.453Z,10.20
2022-08-26T12:58:03.702Z,7.30
2022-08-26T12:59:03.405Z,9.70
2022-08-26T13:00:03.387Z,9.10
2022-08-26T13:01:03.480Z,7.10
2022-08-26T13:02:03.410Z,8.00